createdAt,value
2022-08-31T00:02:03.691Z,50.56
2022-08-31T00:04:31.814Z,50.55
2022-08-31T00:06:58.417Z,50.45
2022-08-31T00:09:25.034Z,49.84
2022-08-31T00:11:51.545Z,49.14
2022-08-31T00:14:18.210Z,48.47
2022-08-31T00:16:45.911Z,48.26
2022-08-31T00:19:15.130Z,48.04
2022-08-31T00:21:41.936Z,47.56
2022-08-31T00:24:11.522Z,47.12
2022-08-31T00:26:38.014Z,46.78
2022-08-31T00:29:05.135Z,47.80
2022-08-31T00:31:31.674Z,47.54
2022-08-31T00:33:58.617Z,47.94
2022-08-31T00:36:26.240Z,48.42
2022-08-31T00:38:54.442Z,48.46
2022-08-31T00:41:25.065Z,48.96
2022-08-31T00:43:57.089Z,48.98
2022-08-31T00:46:33.109Z,49.28
2022-08-31T00:49:22.091Z,48.75
2022-08-31T00:51:59.281Z,49.20
2022-08-31T00:54:34.598Z,49.09
2022-08-31T00:57:01.787Z,49.81
2022-08-31T00:59:28.847Z,50.89
2022-08-31T01:01:55.463Z,51.64
2022-08-31T01:04:22.427Z,53.30
2022-08-31T01:06:49.891Z,53.29
2022-08-31T01:09:17.036Z,53.88
2022-08-31T01:11:43.774Z,53.89
2022-08-31T01:14:11.000Z,54.88
2022-08-31T01:16:52.692Z,54.52
2022-08-31T01:19:42.144Z,54.26
2022-08-31T01:22:25.977Z,54.72
2022-08-31T01:24:54.843Z,54.79
2022-08-31T01:27:28.829Z,54.30
2022-08-31T01:29:59.657Z,55.50
2022-08-31T01:32:26.103Z,54.24
2022-08-31T01:34:52.746Z,54.14
2022-08-31T01:37:19.409Z,50.54
2022-08-31T01:39:56.519Z,49.37
2022-08-31T01:42:22.907Z,49.26
2022-08-31T01:44:59.635Z,49.84
2022-08-31T01:47:26.119Z,51.19
2022-08-31T01:49:52.533Z,50.43
2022-08-31T01:52:23.568Z,52.24
2022-08-31T01:54:54.213Z,53.95
2022-08-31T01:57:30.812Z,54.21
2022-08-31T02:00:04.409Z,56.90
2022-08-31T02:02:31.078Z,58.00
2022-08-31T02:04:58.967Z,60.51
2022-08-31T02:07:25.517Z,63.51
2022-08-31T02:09:53.546Z,64.70
2022-08-31T02:12:20.060Z,67.51
2022-08-31T02:14:46.501Z,70.78
2022-08-31T02:17:12.918Z,73.41
2022-08-31T02:19:39.340Z,76.81
2022-08-31T02:22:06.044Z,78.38
2022-08-31T02:24:32.670Z,78.31
2022-08-31T02:26:59.259Z,81.44
2022-08-31T02:29:25.803Z,81.36
2022-08-31T02:31:52.325Z,83.91
2022-08-31T02:34:19.309Z,82.83
2022-08-31T02:36:45.822Z,84.33
2022-08-31T02:39:13.681Z,84.70
2022-08-31T02:41:42.335Z,86.17
2022-08-31T02:44:08.803Z,86.08
2022-08-31T02:46:35.558Z,87.63
2022-08-31T02:49:02.631Z,89.31
2022-08-31T02:51:29.558Z,89.28
2022-08-31T02:53:56.078Z,88.82
2022-08-31T02:56:23.745Z,88.92
2022-08-31T02:58:54.795Z,88.80
2022-08-31T03:01:22.839Z,89.23
2022-08-31T03:03:50.000Z,88.48
2022-08-31T03:06:17.454Z,89.05
2022-08-31T03:08:43.942Z,87.60
2022-08-31T03:11:10.387Z,86.90
2022-08-31T03:13:38.101Z,88.62
2022-08-31T03:16:05.420Z,87.81
2022-08-31T03:18:32.863Z,88.15
2022-08-31T03:20:59.514Z,87.51
2022-08-31T03:23:26.291Z,88.52
2022-08-31T03:25:52.752Z,89.09
2022-08-31T03:28:19.330Z,87.42
2022-08-31T03:30:45.784Z,86.47
2022-08-31T03:33:12.693Z,86.33
2022-08-31T03:35:44.014Z,87.79
2022-08-31T03:38:12.731Z,86.60
2022-08-31T03:40:40.983Z,86.95
2022-08-31T03:43:11.628Z,87.49
2022-08-31T03:45:40.066Z,87.51
2022-08-31T03:48:11.986Z,87.56
2022-08-31T03:50:39.767Z,87.34
2022-08-31T03:53:07.486Z,86.09
2022-08-31T03:55:35.863Z,87.26
2022-08-31T03:58:02.331Z,87.05
2022-08-31T04:00:29.552Z,86.13
2022-08-31T04:02:59.618Z,85.89
2022-08-31T04:05:28.273Z,86.62
2022-08-31T04:07:55.761Z,83.66
2022-08-31T04:10:23.014Z,83.58
2022-08-31T04:12:50.388Z,85.19
2022-08-31T04:15:17.987Z,84.51
2022-08-31T04:17:47.593Z,85.97
2022-08-31T04:20:14.475Z,85.80
2022-08-31T04:22:41.058Z,85.49
2022-08-31T04:25:10.133Z,84.64
2022-08-31T04:27:38.124Z,86.02
2022-08-31T04:30:07.579Z,85.14
2022-08-31T04:32:35.196Z,84.77
2022-08-31T04:35:01.974Z,83.75
2022-08-31T04:37:29.499Z,85.26
2022-08-31T04:39:59.241Z,86.11
2022-08-31T04:42:26.194Z,85.55
2022-08-31T04:44:52.621Z,84.46
2022-08-31T04:47:20.344Z,86.06
2022-08-31T04:49:48.162Z,85.62
2022-08-31T04:52:14.660Z,85.37
2022-08-31T04:54:41.127Z,85.79
2022-08-31T04:57:07.568Z,85.69
2022-08-31T04:59:33.986Z,84.38
2022-08-31T05:02:00.493Z,84.15
2022-08-31T05:04:28.990Z,84.89
2022-08-31T05:06:55.487Z,83.97
2022-08-31T05:09:23.616Z,82.93
2022-08-31T05:11:52.379Z,83.66
2022-08-31T05:14:18.962Z,82.71
2022-08-31T05:16:45.863Z,82.95
2022-08-31T05:19:12.442Z,82.37
2022-08-31T05:21:41.353Z,83.47
2022-08-31T05:24:14.495Z,83.41
2022-08-31T05:26:44.434Z,82.04
2022-08-31T05:29:14.184Z,83.77
2022-08-31T05:31:41.624Z,83.37
2022-08-31T05:34:08.378Z,83.03
2022-08-31T05:36:35.438Z,82.62
2022-08-31T05:39:02.184Z,81.86
2022-08-31T05:41:29.878Z,81.77
2022-08-31T05:43:56.458Z,81.69
2022-08-31T05:46:23.502Z,81.16
2022-08-31T05:48:50.095Z,80.47
2022-08-31T05:51:18.156Z,79.96
2022-08-31T05:53:45.639Z,79.54
2022-08-31T05:56:15.806Z,79.66
2022-08-31T05:58:46.321Z,78.95
2022-08-31T06:01:30.409Z,78.26
2022-08-31T06:03:58.056Z,77.80
2022-08-31T06:06:24.859Z,77.73
2022-08-31T06:08:52.017Z,78.01
2022-08-31T06:11:22.133Z,77.73
2022-08-31T06:13:51.200Z,77.52
2022-08-31T06:16:18.281Z,77.15
2022-08-31T06:18:50.667Z,77.23
2022-08-31T06:21:33.391Z,76.97
2022-08-31T06:24:02.041Z,76.46
2022-08-31T06:26:30.378Z,76.67
2022-08-31T06:29:00.138Z,76.79
2022-08-31T06:31:31.009Z,76.85
2022-08-31T06:33:58.069Z,76.84
2022-08-31T06:36:26.788Z,76.91
2022-08-31T06:38:56.129Z,76.07
2022-08-31T06:41:27.118Z,75.64
2022-08-31T06:43:53.969Z,75.83
2022-08-31T06:46:21.745Z,75.18
2022-08-31T06:48:50.685Z,76.00
2022-08-31T06:51:17.934Z,76.05
2022-08-31T06:53:44.491Z,75.64
2022-08-31T06:56:20.792Z,75.04
2022-08-31T06:58:53.616Z,74.67
2022-08-31T07:01:32.584Z,74.58
2022-08-31T07:04:07.746Z,74.45
2022-08-31T07:06:37.958Z,74.21
2022-08-31T07:09:06.800Z,73.05
2022-08-31T07:11:44.491Z,72.84
2022-08-31T07:14:14.272Z,73.31
2022-08-31T07:16:42.250Z,72.09
2022-08-31T07:19:09.237Z,71.81
2022-08-31T07:21:41.342Z,71.49
2022-08-31T07:24:08.913Z,70.41
2022-08-31T07:26:40.027Z,69.72
2022-08-31T07:29:07.450Z,69.75
2022-08-31T07:31:44.772Z,69.81
2022-08-31T07:34:12.942Z,68.71
2022-08-31T07:36:58.902Z,69.09
2022-08-31T07:39:45.647Z,69.98
2022-08-31T07:42:16.007Z,69.43
2022-08-31T07:44:52.948Z,68.40
2022-08-31T07:47:20.533Z,68.49
2022-08-31T07:49:52.308Z,67.63
2022-08-31T07:52:30.078Z,68.52
2022-08-31T07:55:07.883Z,67.74
2022-08-31T07:57:44.226Z,67.74
2022-08-31T08:00:40.010Z,67.36
2022-08-31T08:03:13.126Z,66.32
2022-08-31T08:05:41.628Z,65.63
2022-08-31T08:08:13.871Z,66.53
2022-08-31T08:10:46.709Z,67.23
2022-08-31T08:13:20.111Z,66.46
2022-08-31T08:15:48.021Z,65.61
2022-08-31T08:18:14.631Z,66.10
2022-08-31T08:20:41.306Z,66.35
2022-08-31T08:23:14.044Z,66.21
2022-08-31T08:25:43.528Z,65.70
2022-08-31T08:28:37.964Z,66.05
2022-08-31T08:31:04.687Z,65.05
2022-08-31T08:33:33.512Z,64.75
2022-08-31T08:36:03.514Z,65.01
2022-08-31T08:38:31.486Z,65.84
2022-08-31T08:41:04.957Z,65.27
2022-08-31T08:43:34.951Z,64.70
2022-08-31T08:46:19.799Z,64.19
2022-08-31T08:48:55.505Z,64.08
2022-08-31T08:51:29.315Z,62.57
2022-08-31T08:54:02.976Z,63.62
2022-08-31T08:56:33.791Z,63.30
2022-08-31T08:59:00.796Z,63.12
2022-08-31T09:01:29.230Z,63.90
2022-08-31T09:04:17.150Z,63.58
2022-08-31T09:07:12.011Z,62.00
2022-08-31T09:10:00.781Z,60.43
2022-08-31T09:12:33.820Z,60.89
2022-08-31T09:15:36.193Z,59.74
2022-08-31T09:18:33.498Z,59.04
2022-08-31T09:21:06.292Z,59.32
2022-08-31T09:23:44.215Z,58.77
2022-08-31T09:26:16.151Z,57.46
2022-08-31T09:28:47.109Z,58.16
2022-08-31T09:31:37.404Z,57.95
2022-08-31T09:34:12.446Z,57.14
2022-08-31T09:36:43.400Z,56.01
2022-08-31T09:39:34.509Z,55.53
2022-08-31T09:42:14.811Z,56.10
2022-08-31T09:44:42.839Z,55.57
2022-08-31T09:47:43.658Z,54.29
2022-08-31T09:50:11.243Z,53.07
2022-08-31T09:52:58.484Z,53.29
2022-08-31T09:55:27.937Z,52.14
2022-08-31T09:57:55.993Z,52.49
2022-08-31T10:00:36.593Z,53.37
2022-08-31T10:03:25.952Z,51.01
2022-08-31T10:05:54.538Z,50.75
2022-08-31T10:08:46.180Z,50.08
2022-08-31T10:11:17.933Z,50.61
2022-08-31T10:13:57.044Z,48.73
2022-08-31T10:16:27.252Z,50.14
2022-08-31T10:19:06.228Z,48.76
2022-08-31T10:21:32.687Z,48.61
2022-08-31T10:24:28.243Z,48.41
2022-08-31T10:27:31.423Z,48.38
2022-08-31T10:30:11.441Z,48.78
2022-08-31T10:32:53.263Z,48.66
2022-08-31T10:35:26.393Z,48.50
2022-08-31T10:37:58.586Z,48.15
2022-08-31T10:40:35.060Z,47.60
2022-08-31T10:43:11.773Z,47.25
2022-08-31T10:45:43.102Z,46.15
2022-08-31T10:48:12.759Z,46.18
2022-08-31T10:51:14.180Z,45.19
2022-08-31T10:54:07.161Z,45.00
2022-08-31T10:57:05.459Z,44.81
2022-08-31T10:59:45.934Z,45.22
2022-08-31T11:02:28.158Z,43.55
2022-08-31T11:05:26.039Z,44.57
2022-08-31T11:08:01.680Z,44.18
2022-08-31T11:10:55.153Z,43.39
2022-08-31T11:13:31.216Z,44.51
2022-08-31T11:16:19.772Z,43.55
2022-08-31T11:19:12.637Z,42.33
2022-08-31T11:22:02.917Z,42.74
2022-08-31T11:24:56.658Z,42.22
2022-08-31T11:27:26.999Z,42.31
2022-08-31T11:30:02.624Z,42.04
2022-08-31T11:32:46.601Z,41.22
2022-08-31T11:35:15.525Z,41.09
2022-08-31T11:37:55.570Z,41.99
2022-08-31T11:40:44.008Z,41.35
2022-08-31T11:43:33.624Z,42.08
2022-08-31T11:46:26.951Z,41.38
2022-08-31T11:48:53.905Z,40.85
2022-08-31T11:51:40.990Z,40.40
2022-08-31T11:54:41.498Z,40.93
2022-08-31T11:57:15.723Z,39.71
2022-08-31T11:59:45.879Z,39.62
2022-08-31T12:02:21.770Z,38.76
2022-08-31T12:05:03.058Z,39.71
2022-08-31T12:07:36.435Z,39.67
2022-08-31T12:10:15.701Z,39.43
2022-08-31T12:13:09.528Z,39.46
2022-08-31T12:16:01.943Z,39.94
2022-08-31T12:18:38.461Z,39.98
2022-08-31T12:21:31.064Z,39.60
2022-08-31T12:24:06.258Z,39.98
2022-08-31T12:27:00.447Z,38.98
2022-08-31T12:29:35.466Z,38.63
2022-08-31T12:32:21.520Z,38.42
2022-08-31T12:35:00.345Z,38.57
2022-08-31T12:37:36.026Z,39.11
2022-08-31T12:40:19.901Z,38.71
2022-08-31T12:42:55.100Z,38.60
2022-08-31T12:45:49.441Z,38.39
2022-08-31T12:48:27.027Z,38.12
2022-08-31T12:51:13.163Z,38.06
2022-08-31T12:53:58.194Z,38.63
2022-08-31T12:56:36.718Z,37.89
2022-08-31T12:59:12.238Z,37.62
2022-08-31T13:01:46.300Z,37.26
2022-08-31T13:04:16.036Z,38.85
2022-08-31T13:06:45.064Z,38.07
2022-08-31T13:09:33.077Z,37.51
2022-08-31T13:12:00.825Z,36.97
2022-08-31T13:14:40.058Z,37.34
2022-08-31T13:17:29.358Z,37.94
2022-08-31T13:19:59.254Z,37.94
2022-08-31T13:22:31.449Z,37.99
2022-08-31T13:25:13.322Z,37.75
2022-08-31T13:27:51.264Z,37.93
2022-08-31T13:30:21.190Z,37.92
2022-08-31T13:32:54.629Z,37.30
2022-08-31T13:35:26.026Z,37.87
2022-08-31T13:38:05.749Z,37.30
2022-08-31T13:40:37.390Z,36.99
2022-08-31T13:43:07.422Z,37.10
2022-08-31T13:45:40.002Z,37.26
2022-08-31T13:48:14.338Z,37.21
2022-08-31T13:50:53.392Z,38.05
2022-08-31T13:53:43.075Z,37.40
2022-08-31T13:56:52.474Z,37.31
2022-08-31T13:59:32.901Z,37.03
2022-08-31T14:02:19.442Z,37.11
2022-08-31T14:04:57.436Z,37.49
2022-08-31T14:07:32.861Z,37.28
2022-08-31T14:10:07.933Z,37.46
2022-08-31T14:12:46.042Z,37.18
2022-08-31T14:15:17.383Z,37.51
2022-08-31T14:21:20.974Z,37.24
2022-08-31T14:24:03.223Z,37.60
2022-08-31T14:26:33.377Z,37.55
2022-08-31T14:29:10.003Z,37.00
2022-08-31T14:31:52.300Z,37.05
2022-08-31T14:34:25.264Z,36.89
2022-08-31T14:37:06.402Z,37.36
2022-08-31T14:39:38.784Z,36.71
2022-08-31T14:42:18.543Z,36.43
2022-08-31T14:44:53.649Z,36.88
2022-08-31T14:47:24.214Z,36.91
2022-08-31T14:49:51.622Z,37.21
2022-08-31T14:52:18.580Z,37.68
2022-08-31T14:54:46.044Z,37.54
2022-08-31T14:57:17.678Z,37.75
2022-08-31T14:59:46.704Z,37.72
2022-08-31T15:02:16.429Z,37.64
2022-08-31T15:04:45.529Z,37.53
2022-08-31T15:07:13.936Z,37.19
2022-08-31T15:09:42.223Z,36.58
2022-08-31T15:12:14.683Z,36.60
2022-08-31T15:14:43.084Z,36.50
2022-08-31T15:17:11.683Z,36.08
2022-08-31T15:19:46.038Z,35.21
2022-08-31T15:22:12.568Z,34.92
2022-08-31T15:24:46.376Z,34.08
2022-08-31T15:27:15.138Z,34.04
2022-08-31T15:29:43.428Z,34.05
2022-08-31T15:32:10.273Z,33.70
2022-08-31T15:34:38.195Z,33.92
2022-08-31T15:37:07.314Z,34.22
2022-08-31T15:39:48.796Z,34.41
2022-08-31T15:42:20.504Z,35.45
2022-08-31T15:44:56.015Z,35.17
2022-08-31T15:47:47.900Z,35.42
2022-08-31T15:50:19.281Z,34.74
2022-08-31T15:52:51.586Z,35.47
2022-08-31T15:55:23.336Z,35.81
2022-08-31T15:57:54.457Z,35.96
2022-08-31T16:00:26.068Z,36.24
2022-08-31T16:02:57.631Z,36.31
2022-08-31T16:05:28.303Z,35.80
2022-08-31T16:07:57.277Z,36.19
2022-08-31T16:10:24.526Z,35.90
2022-08-31T16:12:54.781Z,36.00
2022-08-31T16:15:24.648Z,35.03
2022-08-31T16:17:54.033Z,34.88
2022-08-31T16:20:20.742Z,34.63
2022-08-31T16:22:48.349Z,34.90
2022-08-31T16:25:16.311Z,34.97
2022-08-31T16:27:43.384Z,34.96
2022-08-31T16:30:11.833Z,35.34
2022-08-31T16:32:38.329Z,34.34
2022-08-31T16:35:05.672Z,34.56
2022-08-31T16:37:33.181Z,34.99
2022-08-31T16:40:00.129Z,35.13
2022-08-31T16:42:26.831Z,36.08
2022-08-31T16:44:53.363Z,36.00
2022-08-31T16:47:21.496Z,35.80
2022-08-31T16:49:48.378Z,36.05
2022-08-31T16:52:21.411Z,36.01
2022-08-31T16:54:51.004Z,35.78
2022-08-31T16:57:21.131Z,35.77
2022-08-31T16:59:48.718Z,36.23
2022-08-31T17:02:16.564Z,36.38
2022-08-31T17:04:53.398Z,36.03
2022-08-31T17:07:22.116Z,36.48
2022-08-31T17:09:49.027Z,36.23
2022-08-31T17:12:19.373Z,36.47
2022-08-31T17:14:48.340Z,35.85
2022-08-31T17:17:19.030Z,36.46
2022-08-31T17:19:46.842Z,37.01
2022-08-31T17:22:23.300Z,36.83
2022-08-31T17:24:56.371Z,37.10
2022-08-31T17:27:25.279Z,36.77
2022-08-31T17:29:55.700Z,36.79
2022-08-31T17:32:27.832Z,36.81
2022-08-31T17:34:55.686Z,35.90
2022-08-31T17:37:30.346Z,36.19
2022-08-31T17:39:58.947Z,36.28
2022-08-31T17:42:27.169Z,36.98
2022-08-31T17:44:55.513Z,36.95
2022-08-31T17:47:23.887Z,37.13
2022-08-31T17:49:52.472Z,36.88
2022-08-31T17:52:20.792Z,36.61
2022-08-31T17:54:48.443Z,36.55
2022-08-31T17:57:17.129Z,36.18
2022-08-31T17:59:49.253Z,37.29
2022-08-31T18:02:22.736Z,36.76
2022-08-31T18:04:49.353Z,37.15
2022-08-31T18:07:16.229Z,36.55
2022-08-31T18:09:45.516Z,36.36
2022-08-31T18:12:14.425Z,36.27
2022-08-31T18:14:41.607Z,36.05
2022-08-31T18:17:11.256Z,36.66
2022-08-31T18:19:38.285Z,36.65
2022-08-31T18:22:05.185Z,35.85
2022-08-31T18:24:35.348Z,36.24
2022-08-31T18:27:04.101Z,36.44
2022-08-31T18:29:33.981Z,35.98
2022-08-31T18:32:09.862Z,36.39
2022-08-31T18:34:40.107Z,36.27
2022-08-31T18:37:07.816Z,37.03
2022-08-31T18:39:53.142Z,36.91
2022-08-31T18:42:39.447Z,35.92
2022-08-31T18:45:18.163Z,36.35
2022-08-31T18:48:07.217Z,36.35
2022-08-31T18:50:36.980Z,36.52
2022-08-31T18:53:08.192Z,36.26
2022-08-31T18:55:41.472Z,36.42
2022-08-31T18:58:07.999Z,36.12
2022-08-31T19:00:34.849Z,35.98
2022-08-31T19:03:02.510Z,35.91
2022-08-31T19:05:29.745Z,36.44
2022-08-31T19:07:58.137Z,36.64
2022-08-31T19:10:25.657Z,36.61
2022-08-31T19:12:55.302Z,36.37
2022-08-31T19:15:25.586Z,36.75
2022-08-31T19:18:01.600Z,36.49
2022-08-31T19:20:29.328Z,36.58
2022-08-31T19:22:57.309Z,36.56
2022-08-31T19:25:27.068Z,36.56
2022-08-31T19:27:54.809Z,36.58
2022-08-31T19:30:27.284Z,36.86
2022-08-31T19:32:58.117Z,36.74
2022-08-31T19:35:27.376Z,36.71
2022-08-31T19:37:56.369Z,36.62
2022-08-31T19:40:35.552Z,36.79
2022-08-31T19:43:43.006Z,37.44
2022-08-31T19:45:49.019Z,37.06
2022-08-31T19:48:17.207Z,37.69
2022-08-31T19:50:44.152Z,37.54
2022-08-31T19:53:12.093Z,37.67
2022-08-31T19:55:50.085Z,37.75
2022-08-31T19:58:19.242Z,36.90
2022-08-31T20:00:48.245Z,37.93
2022-08-31T20:03:15.747Z,37.75
2022-08-31T20:05:43.502Z,37.61
2022-08-31T20:08:12.829Z,37.62
2022-08-31T20:10:44.567Z,37.73
2022-08-31T20:13:12.677Z,38.08
2022-08-31T20:15:44.455Z,37.77
2022-08-31T20:18:12.913Z,37.84
2022-08-31T20:20:45.889Z,38.19
2022-08-31T20:23:16.727Z,38.40
2022-08-31T20:25:45.487Z,38.36
2022-08-31T20:28:12.867Z,38.17
2022-08-31T20:30:41.233Z,38.51
2022-08-31T20:33:08.198Z,38.18
2022-08-31T20:35:38.675Z,37.66
2022-08-31T20:38:06.134Z,38.14
2022-08-31T20:40:33.403Z,38.57
2022-08-31T20:43:01.438Z,38.31
2022-08-31T20:45:28.006Z,38.20
2022-08-31T20:48:13.009Z,38.28
2022-08-31T20:50:42.707Z,37.90
2022-08-31T20:53:18.535Z,38.52
2022-08-31T20:56:07.944Z,38.15
2022-08-31T20:58:34.368Z,37.82
2022-08-31T21:01:07.309Z,37.95
2022-08-31T21:03:34.671Z,37.73
2022-08-31T21:06:02.913Z,37.86
2022-08-31T21:08:29.360Z,37.82
2022-08-31T21:10:55.791Z,37.65
2022-08-31T21:13:22.192Z,37.33
2022-08-31T21:15:48.645Z,38.05
2022-08-31T21:18:18.929Z,37.42
2022-08-31T21:20:46.226Z,37.57
2022-08-31T21:23:13.371Z,37.34
2022-08-31T21:25:45.628Z,37.32
2022-08-31T21:28:15.557Z,37.19
2022-08-31T21:30:42.060Z,37.61
2022-08-31T21:33:08.499Z,37.35
2022-08-31T21:35:35.705Z,37.63
2022-08-31T21:38:03.156Z,37.31
2022-08-31T21:40:31.012Z,37.50
2022-08-31T21:42:58.322Z,38.03
2022-08-31T21:45:25.207Z,37.92
2022-08-31T21:47:51.635Z,37.70
2022-08-31T21:50:18.186Z,37.50
2022-08-31T21:52:44.575Z,37.97
2022-08-31T21:55:13.561Z,37.41
2022-08-31T21:57:40.771Z,37.62
2022-08-31T22:00:13.675Z,37.20
2022-08-31T22:02:46.683Z,37.54
2022-08-31T22:05:13.871Z,38.10
2022-08-31T22:07:40.652Z,37.43
2022-08-31T22:10:07.614Z,37.83
2022-08-31T22:12:34.135Z,37.59
2022-08-31T22:15:05.213Z,37.80
2022-08-31T22:17:48.527Z,37.82
2022-08-31T22:20:19.881Z,37.96
2022-08-31T22:22:46.986Z,37.73
2022-08-31T22:25:13.715Z,39.06
2022-08-31T22:27:40.218Z,37.32
2022-08-31T22:30:07.374Z,38.29
2022-08-31T22:32:33.994Z,38.04
2022-08-31T22:35:00.598Z,37.94
2022-08-31T22:37:27.016Z,38.92
2022-08-31T22:39:55.183Z,38.72
2022-08-31T22:42:22.310Z,39.51
2022-08-31T22:44:48.700Z,39.21
2022-08-31T22:47:15.162Z,38.99
2022-08-31T22:49:41.549Z,39.01
2022-08-31T22:52:08.018Z,39.36
2022-08-31T22:54:35.195Z,39.60
2022-08-31T22:57:01.773Z,40.16
2022-08-31T22:59:30.503Z,39.64
2022-08-31T23:02:03.842Z,39.19
2022-08-31T23:04:33.190Z,39.73
2022-08-31T23:07:01.309Z,39.69
2022-08-31T23:09:30.882Z,39.80
2022-08-31T23:12:00.139Z,39.66
2022-08-31T23:14:27.622Z,40.54
2022-08-31T23:16:58.610Z,40.32
2022-08-31T23:19:30.807Z,40.62
2022-08-31T23:21:58.189Z,40.24
2022-08-31T23:24:28.563Z,40.67
2022-08-31T23:27:00.448Z,41.07
2022-08-31T23:29:30.933Z,40.20
2022-08-31T23:31:58.247Z,40.68
2022-08-31T23:34:24.736Z,41.51
2022-08-31T23:36:53.203Z,42.73
2022-08-31T23:39:23.431Z,42.07
2022-08-31T23:41:50.499Z,41.12
2022-08-31T23:44:20.417Z,40.98
2022-08-31T23:46:46.925Z,41.77
2022-08-31T23:49:16.860Z,42.21
2022-08-31T23:51:43.661Z,41.56
2022-08-31T23:54:12.393Z,41.77
2022-08-31T23:56:41.873Z,42.51
2022-08-31T23:59:11.847Z,43.45
